Time;durP1;ratioP1;P1;durP2;ratioP2;P2;SDS_P1;SDS_P2;PMS_P1;PMS_P2;Temp;Humidity;BMP_temperature;BMP_pressure;BME280_temperature;BME280_humidity;BME280_pressure;Samples;Min_cycle;Max_cycle;Signal;HPM_P1;HPM_P2
2022/10/24 00:02:04;;;;;;;;;;;16.70;99.90;;;;;;5085612;28;19947;-74
2022/10/24 00:04:30;;;;;;;;;;;16.70;99.90;;;;;;5050976;28;20230;-73
2022/10/24 00:06:56;;;;;;;;;;;16.70;99.90;;;;;;5084808;28;19908;-74
2022/10/24 00:09:21;;;;;;;;;;;16.70;99.90;;;;;;5067638;28;19951;-73
2022/10/24 00:11:47;;;;;;;;;;;16.70;99.90;;;;;;5084866;28;19917;-74
2022/10/24 00:14:13;;;;;;;;;;;16.70;99.90;;;;;;5084700;28;19945;-74
2022/10/24 00:16:38;;;;;;;;;;;16.70;99.90;;;;;;5084302;28;19909;-74
2022/10/24 00:19:04;;;;;;;;;;;16.70;99.90;;;;;;5084528;28;19908;-74
2022/10/24 00:21:30;;;;;;;;;;;16.60;99.90;;;;;;5083256;28;19950;-74
2022/10/24 00:23:55;;;;;;;;;;;16.70;99.90;;;;;;5084605;28;19908;-74
2022/10/24 00:26:21;;;;;;;;;;;16.70;99.90;;;;;;5084819;28;20374;-74
2022/10/24 00:28:46;;;;;;;;;;;16.70;99.90;;;;;;5084791;28;19920;-74
2022/10/24 00:31:14;;;;;;;;;;;16.80;99.90;;;;;;5084386;28;19975;-74
2022/10/24 00:33:40;;;;;;;;;;;16.70;99.90;;;;;;5066885;28;20002;-74
2022/10/24 00:36:10;;;;;;;;;;;16.70;99.90;;;;;;5084040;28;19908;-75
2022/10/24 00:38:36;;;;;;;;;;;16.70;99.90;;;;;;5049972;28;19912;-74
2022/10/24 00:41:01;;;;;;;;;;;16.60;99.90;;;;;;5084184;28;19930;-74
2022/10/24 00:43:27;;;;;;;;;;;16.60;99.90;;;;;;5066247;28;19976;-75
2022/10/24 00:45:57;;;;;;;;;;;16.60;99.90;;;;;;5084123;28;20195;-75
2022/10/24 00:48:39;;;;;;;;;;;16.60;99.90;;;;;;5049468;28;19919;-75
2022/10/24 00:51:07;;;;;;;;;;;16.60;99.90;;;;;;5049955;28;19932;-74
2022/10/24 00:53:34;;;;;;;;;;;16.60;99.90;;;;;;5066193;28;19916;-74
2022/10/24 00:56:01;;;;;;;;;;;16.60;99.90;;;;;;5066229;28;19915;-74
2022/10/24 00:58:27;;;;;;;;;;;16.60;99.90;;;;;;5049477;28;20204;-74
2022/10/24 01:00:53;;;;;;;;;;;16.60;99.90;;;;;;5050422;28;19908;-74
2022/10/24 01:03:19;;;;;;;;;;;16.50;99.90;;;;;;5067006;28;19990;-74
2022/10/24 01:06:08;;;;;;;;;;;16.50;99.90;;;;;;5091991;28;19975;-75
2022/10/24 01:09:12;;;;;;;;;;;16.50;99.90;;;;;;5060530;28;19912;-75
2022/10/24 01:12:03;;;;;;;;;;;16.50;99.90;;;;;;4990774;28;19910;-75
2022/10/24 01:14:46;;;;;;;;;;;16.40;99.90;;;;;;4977136;28;20144;-75
2022/10/24 01:17:50;;;;;;;;;;;16.40;99.90;;;;;;5067734;28;19915;-75
2022/10/24 01:20:29;;;;;;;;;;;16.40;99.90;;;;;;5090045;28;19919;-75
2022/10/24 01:23:13;;;;;;;;;;;16.40;99.90;;;;;;5066538;28;20145;-75
2022/10/24 01:26:06;;;;;;;;;;;16.30;99.90;;;;;;5084002;28;19931;-75
2022/10/24 01:28:50;;;;;;;;;;;16.30;99.90;;;;;;5083466;28;19912;-75
2022/10/24 01:31:41;;;;;;;;;;;16.30;99.90;;;;;;5068683;28;20196;-75
2022/10/24 01:34:10;;;;;;;;;;;16.30;99.90;;;;;;5018372;28;19946;-75
2022/10/24 01:36:44;;;;;;;;;;;16.20;99.90;;;;;;5057391;28;19917;-75
2022/10/24 01:39:12;;;;;;;;;;;16.10;99.90;;;;;;5065797;28;20111;-75
2022/10/24 01:41:38;;;;;;;;;;;16.10;99.90;;;;;;5082401;28;19908;-74
2022/10/24 01:44:20;;;;;;;;;;;16.10;99.90;;;;;;5066232;28;19923;-75
2022/10/24 01:46:57;;;;;;;;;;;16.00;99.90;;;;;;5082273;28;19919;-75
2022/10/24 01:49:25;;;;;;;;;;;16.00;99.90;;;;;;5065945;28;19920;-75
2022/10/24 01:51:53;;;;;;;;;;;16.10;99.90;;;;;;5065968;28;19908;-75
2022/10/24 01:54:19;;;;;;;;;;;16.10;99.90;;;;;;5065664;28;19924;-75
2022/10/24 01:56:44;;;;;;;;;;;16.10;99.90;;;;;;5083032;28;19944;-75
2022/10/24 01:59:28;;;;;;;;;;;16.10;99.90;;;;;;5083660;28;20226;-75
2022/10/24 02:01:59;;;;;;;;;;;16.00;99.90;;;;;;5082250;28;19955;-75
2022/10/24 02:04:26;;;;;;;;;;;16.00;99.90;;;;;;5065583;28;20276;-75
2022/10/24 02:06:51;;;;;;;;;;;15.90;99.90;;;;;;5065482;28;19910;-75
2022/10/24 02:09:17;;;;;;;;;;;15.90;99.90;;;;;;5065514;28;19919;-73
2022/10/24 02:11:43;;;;;;;;;;;15.90;99.90;;;;;;5048540;28;19909;-73
2022/10/24 02:14:19;;;;;;;;;;;15.80;99.90;;;;;;5048972;28;19917;-75
2022/10/24 02:16:48;;;;;;;;;;;15.80;99.90;;;;;;5065646;28;19912;-74
2022/10/24 02:19:13;;;;;;;;;;;15.80;99.90;;;;;;5083302;28;19963;-74
2022/10/24 02:21:51;;;;;;;;;;;15.70;99.90;;;;;;5082725;28;19975;-74
2022/10/24 02:24:28;;;;;;;;;;;15.70;99.90;;;;;;5061294;28;20005;-73
2022/10/24 02:26:56;;;;;;;;;;;15.70;99.90;;;;;;5080771;28;19966;-75
2022/10/24 02:29:45;;;;;;;;;;;15.60;99.90;;;;;;5048205;28;20092;-74
2022/10/24 02:32:12;;;;;;;;;;;15.60;99.90;;;;;;5069023;28;20287;-73
2022/10/24 02:34:38;;;;;;;;;;;15.60;99.90;;;;;;5052402;28;19950;-74
2022/10/24 02:37:04;;;;;;;;;;;15.60;99.90;;;;;;5059291;28;19917;-73
2022/10/24 02:39:29;;;;;;;;;;;15.60;99.90;;;;;;5064452;28;19908;-74
2022/10/24 02:41:55;;;;;;;;;;;15.60;99.90;;;;;;5086232;28;19915;-74
2022/10/24 02:44:21;;;;;;;;;;;15.60;99.90;;;;;;5068041;28;19984;-75
2022/10/24 02:46:46;;;;;;;;;;;15.60;99.90;;;;;;5078939;28;20170;-73
2022/10/24 02:49:12;;;;;;;;;;;15.60;99.90;;;;;;5061482;28;20034;-72
2022/10/24 02:51:39;;;;;;;;;;;15.50;99.90;;;;;;5085125;28;19946;-73
2022/10/24 02:54:04;;;;;;;;;;;15.60;99.90;;;;;;5067853;28;19979;-73
2022/10/24 02:56:30;;;;;;;;;;;15.50;99.90;;;;;;5078425;28;19921;-72
2022/10/24 02:58:56;;;;;;;;;;;15.40;99.90;;;;;;5066290;28;19908;-73
2022/10/24 03:01:22;;;;;;;;;;;15.40;99.90;;;;;;5086023;28;19931;-73
2022/10/24 03:03:47;;;;;;;;;;;15.40;99.90;;;;;;5085980;28;19908;-73
2022/10/24 03:06:13;;;;;;;;;;;15.30;99.90;;;;;;5085510;28;19917;-73
2022/10/24 03:08:38;;;;;;;;;;;15.30;99.90;;;;;;5085659;28;19921;-73
2022/10/24 03:11:04;;;;;;;;;;;15.20;99.90;;;;;;5085047;28;19929;-73
2022/10/24 03:13:30;;;;;;;;;;;15.20;99.90;;;;;;5071407;28;19908;-73
2022/10/24 03:15:55;;;;;;;;;;;15.20;99.90;;;;;;5085440;28;19908;-73
2022/10/24 03:18:21;;;;;;;;;;;15.20;99.90;;;;;;5085316;28;19908;-73
2022/10/24 03:20:47;;;;;;;;;;;15.10;99.90;;;;;;5085785;28;19908;-73
2022/10/24 03:23:12;;;;;;;;;;;15.10;99.90;;;;;;5077211;28;19930;-73
2022/10/24 03:25:38;;;;;;;;;;;15.10;99.90;;;;;;5083788;28;19916;-73
2022/10/24 03:28:04;;;;;;;;;;;15.00;99.90;;;;;;5073502;28;19928;-73
2022/10/24 03:30:29;;;;;;;;;;;15.10;99.90;;;;;;5075120;28;19915;-73
2022/10/24 03:32:55;;;;;;;;;;;15.00;99.90;;;;;;5078360;28;19912;-73
2022/10/24 03:35:21;;;;;;;;;;;15.00;99.90;;;;;;5079833;28;19916;-73
2022/10/24 03:37:46;;;;;;;;;;;15.00;99.90;;;;;;5076238;28;19916;-73
2022/10/24 03:40:12;;;;;;;;;;;14.90;99.90;;;;;;5079135;28;20111;-73
2022/10/24 03:42:38;;;;;;;;;;;15.00;99.90;;;;;;5068589;28;19913;-72
2022/10/24 03:45:04;;;;;;;;;;;14.90;99.90;;;;;;5081603;28;19920;-73
2022/10/24 03:47:29;;;;;;;;;;;14.90;99.90;;;;;;5058819;28;19980;-72
2022/10/24 03:49:55;;;;;;;;;;;14.90;99.90;;;;;;5084967;28;19920;-73
2022/10/24 03:52:21;;;;;;;;;;;14.90;99.90;;;;;;5085127;28;19908;-73
2022/10/24 03:54:46;;;;;;;;;;;14.80;99.90;;;;;;5085056;28;19908;-72
2022/10/24 03:57:12;;;;;;;;;;;14.80;99.90;;;;;;5084356;28;20031;-73
2022/10/24 03:59:38;;;;;;;;;;;14.80;99.90;;;;;;5084820;28;19912;-73
2022/10/24 04:02:04;;;;;;;;;;;14.80;99.90;;;;;;5084963;28;19917;-73
2022/10/24 04:04:30;;;;;;;;;;;14.80;99.90;;;;;;5067452;28;20154;-73
2022/10/24 04:06:55;;;;;;;;;;;14.80;99.90;;;;;;5086711;28;19909;-73
2022/10/24 04:09:21;;;;;;;;;;;14.70;99.90;;;;;;5085635;28;19919;-73
2022/10/24 04:11:47;;;;;;;;;;;14.70;99.90;;;;;;5085885;28;19936;-73
2022/10/24 04:14:13;;;;;;;;;;;14.80;99.90;;;;;;5086535;28;19908;-73
2022/10/24 04:16:38;;;;;;;;;;;14.80;99.90;;;;;;5086310;28;19939;-72
2022/10/24 04:19:04;;;;;;;;;;;14.80;99.90;;;;;;5086192;28;20107;-72
2022/10/24 04:21:30;;;;;;;;;;;14.80;99.90;;;;;;5086497;28;19916;-72
2022/10/24 04:23:55;;;;;;;;;;;14.80;99.90;;;;;;5049770;28;19908;-72
2022/10/24 04:26:21;;;;;;;;;;;14.80;99.90;;;;;;5070700;28;19930;-72
2022/10/24 04:28:47;;;;;;;;;;;14.80;99.90;;;;;;5050998;28;19912;-72
2022/10/24 04:31:13;;;;;;;;;;;14.80;99.90;;;;;;5068101;28;20203;-72
2022/10/24 04:33:38;;;;;;;;;;;14.80;99.90;;;;;;5085969;28;19916;-72
2022/10/24 04:36:04;;;;;;;;;;;14.80;99.90;;;;;;5085776;28;20119;-73
2022/10/24 04:38:30;;;;;;;;;;;14.70;99.90;;;;;;5085842;28;19919;-73
2022/10/24 04:40:56;;;;;;;;;;;14.70;99.90;;;;;;5086130;28;19912;-73
2022/10/24 04:43:23;;;;;;;;;;;14.70;99.90;;;;;;5084503;28;19919;-73
2022/10/24 04:45:48;;;;;;;;;;;14.70;99.90;;;;;;5067961;28;20169;-73
2022/10/24 04:48:14;;;;;;;;;;;14.70;99.90;;;;;;5085473;28;19987;-73
2022/10/24 04:50:41;;;;;;;;;;;14.70;99.90;;;;;;5051228;28;19909;-73
2022/10/24 04:53:06;;;;;;;;;;;14.70;99.90;;;;;;5050778;28;19912;-73
2022/10/24 04:55:32;;;;;;;;;;;14.60;99.90;;;;;;5066779;28;19920;-73
2022/10/24 04:57:59;;;;;;;;;;;14.60;99.90;;;;;;5073636;28;19920;-73
2022/10/24 05:00:25;;;;;;;;;;;14.70;99.90;;;;;;5065481;28;19996;-73
2022/10/24 05:02:51;;;;;;;;;;;14.70;99.90;;;;;;5065757;28;19908;-73
2022/10/24 05:05:16;;;;;;;;;;;14.70;99.90;;;;;;5065643;28;20257;-73
2022/10/24 05:07:43;;;;;;;;;;;14.70;99.90;;;;;;5071582;28;19915;-73
2022/10/24 05:10:08;;;;;;;;;;;14.70;99.90;;;;;;5067931;28;19924;-73
2022/10/24 05:12:34;;;;;;;;;;;14.70;99.90;;;;;;5085286;28;19979;-73
2022/10/24 05:15:00;;;;;;;;;;;14.70;99.90;;;;;;5085804;28;19913;-73
2022/10/24 05:17:25;;;;;;;;;;;14.70;99.90;;;;;;5085207;28;19944;-73
2022/10/24 05:19:51;;;;;;;;;;;14.70;99.90;;;;;;5067961;28;20139;-74
2022/10/24 05:22:17;;;;;;;;;;;14.70;99.90;;;;;;5080372;28;20108;-73
2022/10/24 05:24:42;;;;;;;;;;;14.70;99.90;;;;;;5083777;28;19919;-73
2022/10/24 05:27:08;;;;;;;;;;;14.80;99.90;;;;;;5076984;28;19920;-73
2022/10/24 05:29:34;;;;;;;;;;;14.70;99.90;;;;;;5067157;28;19944;-73
2022/10/24 05:31:59;;;;;;;;;;;14.80;99.90;;;;;;5075757;28;20022;-73
2022/10/24 05:34:25;;;;;;;;;;;14.80;99.90;;;;;;5080057;28;19939;-73
2022/10/24 05:36:51;;;;;;;;;;;14.80;99.90;;;;;;5062381;28;19908;-73
2022/10/24 05:39:17;;;;;;;;;;;14.70;99.90;;;;;;5075857;28;20002;-76
2022/10/24 05:41:42;;;;;;;;;;;14.80;99.90;;;;;;5076799;28;20226;-72
2022/10/24 05:44:11;;;;;;;;;;;14.80;99.90;;;;;;5070537;28;19923;-74
2022/10/24 05:46:37;;;;;;;;;;;14.80;99.90;;;;;;5054571;28;19983;-71
2022/10/24 05:49:03;;;;;;;;;;;14.80;99.90;;;;;;5070526;28;19920;-72
2022/10/24 05:51:28;;;;;;;;;;;14.80;99.90;;;;;;5065281;28;19920;-73
2022/10/24 05:53:54;;;;;;;;;;;14.70;99.90;;;;;;5079042;28;19920;-80
2022/10/24 05:56:20;;;;;;;;;;;14.70;99.90;;;;;;5044724;28;20176;-76
2022/10/24 05:58:45;;;;;;;;;;;14.70;99.90;;;;;;5077421;28;19918;-75
2022/10/24 06:01:11;;;;;;;;;;;14.70;99.90;;;;;;5077105;28;19921;-75
2022/10/24 06:03:38;;;;;;;;;;;14.70;99.90;;;;;;5060558;28;19916;-75
2022/10/24 06:06:06;;;;;;;;;;;14.70;99.90;;;;;;5075419;28;20250;-74
2022/10/24 06:08:33;;;;;;;;;;;14.70;99.90;;;;;;5049458;28;19913;-72
2022/10/24 06:10:59;;;;;;;;;;;14.70;99.90;;;;;;5075892;28;20142;-72
2022/10/24 06:13:25;;;;;;;;;;;14.70;99.90;;;;;;5070856;28;19981;-72
2022/10/24 06:15:50;;;;;;;;;;;14.70;99.90;;;;;;5073920;28;20084;-72
2022/10/24 06:18:16;;;;;;;;;;;14.80;99.90;;;;;;5082113;28;20159;-72
2022/10/24 06:20:42;;;;;;;;;;;14.80;99.90;;;;;;5082308;28;19940;-72
2022/10/24 06:23:07;;;;;;;;;;;14.80;99.90;;;;;;5082442;28;19909;-72
2022/10/24 06:25:33;;;;;;;;;;;14.90;99.90;;;;;;5082430;28;20235;-72
2022/10/24 06:27:59;;;;;;;;;;;14.90;99.90;;;;;;5081681;28;19920;-72
2022/10/24 06:30:24;;;;;;;;;;;14.90;99.90;;;;;;5064321;28;19932;-71
2022/10/24 06:32:50;;;;;;;;;;;14.90;99.90;;;;;;5082399;28;19980;-72
2022/10/24 06:35:17;;;;;;;;;;;14.90;99.90;;;;;;5082274;28;19909;-71
2022/10/24 06:37:43;;;;;;;;;;;14.90;99.90;;;;;;5063850;28;19965;-72
2022/10/24 06:40:09;;;;;;;;;;;15.00;99.90;;;;;;5082222;28;20111;-72
2022/10/24 06:42:35;;;;;;;;;;;15.00;99.90;;;;;;5081973;28;19916;-71
2022/10/24 06:45:01;;;;;;;;;;;15.00;99.90;;;;;;5081706;28;19908;-72
2022/10/24 06:47:26;;;;;;;;;;;15.00;99.90;;;;;;5064040;28;19909;-72
2022/10/24 06:49:52;;;;;;;;;;;15.10;99.90;;;;;;5082078;28;19917;-72
2022/10/24 06:52:17;;;;;;;;;;;15.10;99.90;;;;;;5082068;28;19908;-72
2022/10/24 06:54:43;;;;;;;;;;;15.10;99.90;;;;;;5082090;28;19931;-71
2022/10/24 06:57:09;;;;;;;;;;;15.10;99.90;;;;;;5081928;28;19924;-72
2022/10/24 06:59:34;;;;;;;;;;;15.20;99.90;;;;;;5081824;28;19915;-71
2022/10/24 07:02:00;;;;;;;;;;;15.20;99.90;;;;;;5081908;28;19931;-72
2022/10/24 07:04:26;;;;;;;;;;;15.20;99.90;;;;;;5082014;28;20218;-72
2022/10/24 07:06:51;;;;;;;;;;;15.30;99.90;;;;;;5063596;28;19909;-72
2022/10/24 07:09:17;;;;;;;;;;;15.30;99.90;;;;;;5081788;28;19912;-72
2022/10/24 07:11:43;;;;;;;;;;;15.30;99.90;;;;;;5080696;28;19989;-72
2022/10/24 07:14:09;;;;;;;;;;;15.40;99.90;;;;;;5081587;28;19916;-72
2022/10/24 07:16:35;;;;;;;;;;;15.40;99.90;;;;;;5063931;28;20203;-72
2022/10/24 07:19:01;;;;;;;;;;;15.40;99.90;;;;;;5051062;28;19916;-72
2022/10/24 07:21:28;;;;;;;;;;;15.50;99.90;;;;;;5067786;28;20201;-73
2022/10/24 07:23:53;;;;;;;;;;;15.40;99.90;;;;;;5085454;28;19917;-72
2022/10/24 07:26:20;;;;;;;;;;;15.40;99.90;;;;;;5085262;28;19954;-72
2022/10/24 07:28:46;;;;;;;;;;;15.50;99.90;;;;;;5067353;28;19971;-70
2022/10/24 07:31:15;;;;;;;;;;;15.50;99.90;;;;;;5085357;28;20253;-71
2022/10/24 07:33:41;;;;;;;;;;;15.50;99.90;;;;;;5067966;28;20198;-71
2022/10/24 07:36:07;;;;;;;;;;;15.40;99.90;;;;;;5067051;28;19927;-71
2022/10/24 07:38:33;;;;;;;;;;;15.10;99.90;;;;;;5085015;28;19913;-71
2022/10/24 07:41:02;;;;;;;;;;;15.00;99.90;;;;;;5067372;28;19916;-71
2022/10/24 07:43:28;;;;;;;;;;;14.80;99.90;;;;;;5067267;28;19994;-72
2022/10/24 07:45:54;;;;;;;;;;;14.60;99.90;;;;;;5083760;28;20203;-71
2022/10/24 07:48:19;;;;;;;;;;;14.60;99.90;;;;;;5084675;28;19976;-71
2022/10/24 07:50:46;;;;;;;;;;;14.50;99.90;;;;;;5084941;28;19908;-71
2022/10/24 07:53:11;;;;;;;;;;;14.50;99.90;;;;;;5084938;28;19912;-71
2022/10/24 07:55:38;;;;;;;;;;;14.50;99.90;;;;;;5084814;28;20088;-71
2022/10/24 07:58:04;;;;;;;;;;;14.50;99.90;;;;;;5084260;28;19923;-70
2022/10/24 08:00:29;;;;;;;;;;;14.50;99.90;;;;;;5084802;28;20169;-71
2022/10/24 08:02:55;;;;;;;;;;;14.50;99.90;;;;;;5084688;28;19923;-71
2022/10/24 08:05:21;;;;;;;;;;;14.50;99.90;;;;;;5084667;28;19971;-71
2022/10/24 08:07:47;;;;;;;;;;;14.60;99.90;;;;;;5084131;28;20198;-71
2022/10/24 08:10:12;;;;;;;;;;;14.50;99.90;;;;;;5084581;28;19943;-71
2022/10/24 08:12:38;;;;;;;;;;;14.60;99.90;;;;;;5084175;28;20097;-71
2022/10/24 08:15:04;;;;;;;;;;;14.60;99.90;;;;;;5084440;28;19952;-71
2022/10/24 08:17:30;;;;;;;;;;;14.60;99.90;;;;;;5084093;28;19908;-71
2022/10/24 08:19:56;;;;;;;;;;;14.60;99.90;;;;;;5084228;28;20111;-71
2022/10/24 08:22:21;;;;;;;;;;;14.60;99.90;;;;;;5084350;28;20245;-71
2022/10/24 08:24:47;;;;;;;;;;;14.70;99.90;;;;;;5084296;28;19908;-71
2022/10/24 08:27:13;;;;;;;;;;;14.70;99.90;;;;;;5083767;28;19908;-71
2022/10/24 08:29:38;;;;;;;;;;;14.70;99.90;;;;;;5083607;28;19921;-71
2022/10/24 08:32:05;;;;;;;;;;;14.70;99.90;;;;;;5084048;28;19908;-71
2022/10/24 08:34:31;;;;;;;;;;;14.70;99.90;;;;;;5066271;28;19919;-71
2022/10/24 08:36:57;;;;;;;;;;;14.70;99.90;;;;;;5065820;28;19912;-71
2022/10/24 08:39:23;;;;;;;;;;;14.70;99.90;;;;;;5084040;28;19955;-71
2022/10/24 08:42:15;;;;;;;;;;;14.70;99.90;;;;;;5066176;28;19916;-71
2022/10/24 08:44:42;;;;;;;;;;;14.70;99.90;;;;;;5078704;28;20110;-71
2022/10/24 08:47:22;;;;;;;;;;;14.80;99.90;;;;;;5083392;28;19938;-71
2022/10/24 08:50:00;;;;;;;;;;;14.80;99.90;;;;;;5083730;28;19983;-71
2022/10/24 08:52:44;;;;;;;;;;;14.80;99.90;;;;;;5066147;28;20107;-71
2022/10/24 08:55:20;;;;;;;;;;;14.70;99.90;;;;;;5083640;28;19916;-71
2022/10/24 08:57:51;;;;;;;;;;;14.70;99.90;;;;;;5050046;28;20175;-71
2022/10/24 09:00:19;;;;;;;;;;;14.80;99.90;;;;;;5049187;28;19947;-71
2022/10/24 09:02:48;;;;;;;;;;;14.80;99.90;;;;;;5065911;28;19916;-70
2022/10/24 09:05:22;;;;;;;;;;;14.90;99.90;;;;;;5065786;28;19916;-71
2022/10/24 09:07:47;;;;;;;;;;;15.00;99.90;;;;;;5065382;28;19979;-71
2022/10/24 09:10:18;;;;;;;;;;;15.10;99.90;;;;;;5065126;28;19916;-71
2022/10/24 09:12:44;;;;;;;;;;;15.10;99.90;;;;;;5049505;28;20261;-68
2022/10/24 09:15:21;;;;;;;;;;;15.10;99.90;;;;;;5083133;28;19908;-67
2022/10/24 09:17:47;;;;;;;;;;;15.00;99.90;;;;;;5049684;28;20204;-70
2022/10/24 09:20:12;;;;;;;;;;;15.10;99.90;;;;;;5048771;28;19979;-70
2022/10/24 09:22:38;;;;;;;;;;;15.10;99.90;;;;;;5083110;28;20264;-70
2022/10/24 09:25:05;;;;;;;;;;;15.10;99.90;;;;;;5065403;28;19916;-70
2022/10/24 09:27:33;;;;;;;;;;;15.10;99.90;;;;;;5083897;28;19909;-70
2022/10/24 09:29:59;;;;;;;;;;;15.10;99.90;;;;;;5049101;28;19920;-70
2022/10/24 09:32:26;;;;;;;;;;;15.10;99.90;;;;;;5065790;28;19916;-70
2022/10/24 09:34:51;;;;;;;;;;;15.10;99.90;;;;;;5048922;28;19908;-70
2022/10/24 09:37:29;;;;;;;;;;;15.10;99.90;;;;;;5082655;28;19912;-70
2022/10/24 09:40:08;;;;;;;;;;;15.10;99.90;;;;;;5082812;28;19908;-70
2022/10/24 09:42:36;;;;;;;;;;;15.10;99.90;;;;;;5083451;28;19932;-70
2022/10/24 09:45:20;;;;;;;;;;;15.20;99.90;;;;;;5082984;28;19961;-70
2022/10/24 09:47:45;;;;;;;;;;;15.20;99.90;;;;;;5048649;28;19913;-70
2022/10/24 09:50:20;;;;;;;;;;;15.20;99.90;;;;;;5064894;28;19977;-70
2022/10/24 09:52:49;;;;;;;;;;;15.20;99.90;;;;;;5048535;28;20203;-70
2022/10/24 09:55:20;;;;;;;;;;;15.30;99.90;;;;;;5048355;28;19983;-70
2022/10/24 09:57:46;;;;;;;;;;;15.30;99.90;;;;;;5065284;28;19908;-70
2022/10/24 10:00:23;;;;;;;;;;;15.30;99.90;;;;;;5064601;28;20042;-70
2022/10/24 10:03:00;;;;;;;;;;;15.20;99.90;;;;;;5082862;28;19962;-70
2022/10/24 10:05:28;;;;;;;;;;;15.30;99.90;;;;;;5065555;28;19909;-69
2022/10/24 10:07:54;;;;;;;;;;;15.30;99.90;;;;;;5047983;28;20211;-70
2022/10/24 10:10:27;;;;;;;;;;;15.30;99.90;;;;;;5082035;28;19944;-70
2022/10/24 10:13:06;;;;;;;;;;;15.30;99.90;;;;;;5082627;28;19909;-70
2022/10/24 10:15:38;;;;;;;;;;;15.30;99.90;;;;;;5082449;28;20160;-70
2022/10/24 10:18:19;;;;;;;;;;;15.40;99.90;;;;;;5064320;28;19917;-70
2022/10/24 10:20:45;;;;;;;;;;;15.40;99.90;;;;;;5082317;28;19908;-70
2022/10/24 10:23:30;;;;;;;;;;;15.40;99.90;;;;;;5047975;28;19915;-70
2022/10/24 10:26:04;;;;;;;;;;;15.40;99.90;;;;;;5048603;28;19965;-69
2022/10/24 10:28:35;;;;;;;;;;;15.40;99.90;;;;;;5047433;28;19912;-70
2022/10/24 10:31:01;;;;;;;;;;;15.40;99.90;;;;;;5082425;28;20092;-70
2022/10/24 10:33:35;;;;;;;;;;;15.40;99.90;;;;;;5047686;28;19909;-70
2022/10/24 10:36:42;;;;;;;;;;;15.40;99.90;;;;;;5048131;28;19908;-70
2022/10/24 10:39:36;;;;;;;;;;;15.40;99.90;;;;;;4965127;28;20362;-70
2022/10/24 10:42:11;;;;;;;;;;;15.50;99.90;;;;;;4968848;28;19953;-70
2022/10/24 10:44:59;;;;;;;;;;;15.50;99.90;;;;;;5055903;28;19914;-70
2022/10/24 10:47:35;;;;;;;;;;;15.60;99.90;;;;;;5081807;28;19962;-70
2022/10/24 10:50:26;;;;;;;;;;;15.60;99.90;;;;;;5065074;28;19932;-70
2022/10/24 10:52:54;;;;;;;;;;;15.60;99.90;;;;;;5084330;28;19915;-70
2022/10/24 10:55:28;;;;;;;;;;;15.70;99.90;;;;;;5068182;28;19954;-70
2022/10/24 10:58:12;;;;;;;;;;;15.70;99.90;;;;;;5085670;28;19917;-70
2022/10/24 11:00:53;;;;;;;;;;;15.70;99.90;;;;;;5086012;28;19908;-70
2022/10/24 11:03:35;;;;;;;;;;;15.70;99.90;;;;;;5085915;28;20238;-70
2022/10/24 11:06:11;;;;;;;;;;;15.70;99.90;;;;;;5068734;28;19908;-70
2022/10/24 11:08:55;;;;;;;;;;;15.70;99.90;;;;;;5051211;28;20318;-70
2022/10/24 11:11:30;;;;;;;;;;;15.80;99.90;;;;;;5085646;28;19908;-70
2022/10/24 11:14:11;;;;;;;;;;;15.80;99.90;;;;;;5051931;28;19958;-70
2022/10/24 11:16:36;;;;;;;;;;;15.80;99.90;;;;;;5085017;28;19920;-70
2022/10/24 11:19:07;;;;;;;;;;;15.80;99.90;;;;;;5085307;28;20107;-70
2022/10/24 11:21:33;;;;;;;;;;;15.90;99.90;;;;;;5051727;28;19968;-70
2022/10/24 11:24:10;;;;;;;;;;;15.90;99.90;;;;;;5067719;28;20127;-70
2022/10/24 11:26:47;;;;;;;;;;;15.90;99.90;;;;;;5068975;28;19951;-70
2022/10/24 11:29:43;;;;;;;;;;;15.90;99.90;;;;;;5068412;28;19912;-70
2022/10/24 11:32:19;;;;;;;;;;;16.00;99.90;;;;;;5070341;28;19934;-70
2022/10/24 11:34:51;;;;;;;;;;;16.00;99.90;;;;;;5067470;28;19915;-70
2022/10/24 11:37:25;;;;;;;;;;;16.00;99.90;;;;;;5067213;28;19947;-70
2022/10/24 11:40:04;;;;;;;;;;;16.10;99.90;;;;;;5051273;28;19943;-70
2022/10/24 11:42:39;;;;;;;;;;;16.20;99.90;;;;;;5067658;28;19908;-69
2022/10/24 11:45:08;;;;;;;;;;;16.20;99.90;;;;;;5067168;28;19908;-70
2022/10/24 11:47:55;;;;;;;;;;;16.30;99.90;;;;;;5066836;28;19920;-70
2022/10/24 11:50:33;;;;;;;;;;;16.30;99.90;;;;;;5085062;28;19912;-70
2022/10/24 11:53:27;;;;;;;;;;;16.30;99.90;;;;;;5083855;28;20120;-70
2022/10/24 11:56:14;;;;;;;;;;;16.40;99.90;;;;;;5041953;28;19945;-69
2022/10/24 11:59:03;;;;;;;;;;;16.40;99.90;;;;;;5069373;28;19909;-70
2022/10/24 12:01:54;;;;;;;;;;;16.40;99.90;;;;;;5052275;28;20142;-70
2022/10/24 12:04:29;;;;;;;;;;;16.50;99.90;;;;;;5068227;28;19930;-70
2022/10/24 12:06:58;;;;;;;;;;;16.40;99.90;;;;;;5067100;28;19916;-70
2022/10/24 12:09:55;;;;;;;;;;;16.40;99.90;;;;;;5066725;28;19952;-70
2022/10/24 12:12:43;;;;;;;;;;;16.40;99.90;;;;;;5067051;28;19909;-70
2022/10/24 12:15:14;;;;;;;;;;;16.40;99.90;;;;;;5084400;28;19992;-70
2022/10/24 12:18:09;;;;;;;;;;;16.40;99.90;;;;;;5084480;28;19916;-70
2022/10/24 12:20:35;;;;;;;;;;;16.40;99.90;;;;;;5084628;28;19946;-70
2022/10/24 12:23:01;;;;;;;;;;;16.50;99.90;;;;;;5050110;28;19909;-70
2022/10/24 12:25:36;;;;;;;;;;;16.50;99.90;;;;;;5033449;28;19939;-70
2022/10/24 12:28:07;;;;;;;;;;;16.60;99.90;;;;;;5066243;28;19908;-70
2022/10/24 12:30:34;;;;;;;;;;;16.50;99.90;;;;;;5084176;28;19908;-70
2022/10/24 12:33:07;;;;;;;;;;;16.50;99.90;;;;;;5049783;28;19950;-70
2022/10/24 12:35:45;;;;;;;;;;;16.50;99.90;;;;;;5066405;28;19909;-70
2022/10/24 12:38:27;;;;;;;;;;;16.50;99.90;;;;;;5083785;28;19931;-70
2022/10/24 12:40:55;;;;;;;;;;;16.60;99.90;;;;;;5068130;28;19915;-70
2022/10/24 12:43:43;;;;;;;;;;;16.70;99.90;;;;;;5066489;28;19983;-70
2022/10/24 12:46:14;;;;;;;;;;;16.70;99.90;;;;;;5083676;28;20109;-70
2022/10/24 12:48:43;;;;;;;;;;;16.80;99.90;;;;;;5083901;28;20278;-71
2022/10/24 12:51:39;;;;;;;;;;;16.80;99.90;;;;;;5084016;28;20142;-70
2022/10/24 12:54:11;;;;;;;;;;;16.70;99.90;;;;;;5083809;28;19912;-70
2022/10/24 12:56:48;;;;;;;;;;;16.70;99.90;;;;;;5083531;28;20138;-70
2022/10/24 12:59:14;;;;;;;;;;;16.70;99.90;;;;;;5083551;28;19959;-70
2022/10/24 13:01:39;;;;;;;;;;;16.70;99.90;;;;;;5083748;28;19908;-70
2022/10/24 13:04:11;;;;;;;;;;;16.70;99.90;;;;;;5082452;28;20018;-70
2022/10/24 13:06:45;;;;;;;;;;;16.70;99.90;;;;;;5083327;28;19908;-70
2022/10/24 13:09:19;;;;;;;;;;;16.60;99.90;;;;;;5065750;28;19934;-70
2022/10/24 13:12:06;;;;;;;;;;;16.60;99.90;;;;;;5066792;28;19912;-70
2022/10/24 13:14:37;;;;;;;;;;;16.60;99.90;;;;;;5082528;28;20219;-70
2022/10/24 13:17:07;;;;;;;;;;;16.50;99.90;;;;;;5065314;28;19909;-70
2022/10/24 13:19:33;;;;;;;;;;;16.50;99.90;;;;;;5065583;28;20210;-70
2022/10/24 13:21:59;;;;;;;;;;;16.50;99.90;;;;;;5065686;28;19938;-70
2022/10/24 13:24:37;;;;;;;;;;;16.50;99.90;;;;;;5065577;28;19908;-70
2022/10/24 13:27:02;;;;;;;;;;;16.40;99.90;;;;;;5065078;28;19909;-70
2022/10/24 13:29:28;;;;;;;;;;;16.30;99.90;;;;;;5082885;28;19921;-70
2022/10/24 13:32:15;;;;;;;;;;;16.30;99.90;;;;;;5083163;28;19924;-70
2022/10/24 13:34:58;;;;;;;;;;;16.30;99.90;;;;;;5051373;28;19915;-70
2022/10/24 13:37:27;;;;;;;;;;;16.30;99.90;;;;;;5048113;28;20218;-70
2022/10/24 13:40:14;;;;;;;;;;;16.20;99.90;;;;;;5082970;28;19954;-70
2022/10/24 13:42:42;;;;;;;;;;;16.30;99.90;;;;;;5065166;28;19975;-70
2022/10/24 13:45:26;;;;;;;;;;;16.20;99.90;;;;;;5065288;28;19909;-70
2022/10/24 13:48:25;;;;;;;;;;;16.10;99.90;;;;;;5049285;28;19943;-70
2022/10/24 13:51:18;;;;;;;;;;;16.00;99.90;;;;;;5046754;28;19946;-70
2022/10/24 13:53:48;;;;;;;;;;;16.00;99.90;;;;;;5082792;28;19920;-70
2022/10/24 13:56:14;;;;;;;;;;;16.00;99.90;;;;;;5048869;28;19958;-70
2022/10/24 13:58:41;;;;;;;;;;;16.10;99.90;;;;;;5064772;28;19912;-70
2022/10/24 14:01:13;;;;;;;;;;;16.00;99.90;;;;;;5082554;28;19930;-70
2022/10/24 14:03:40;;;;;;;;;;;16.00;99.90;;;;;;5065333;28;19931;-70
2022/10/24 14:06:08;;;;;;;;;;;16.00;99.90;;;;;;5047915;28;19912;-70
2022/10/24 14:08:36;;;;;;;;;;;16.00;99.90;;;;;;5082076;28;20143;-71
2022/10/24 14:11:04;;;;;;;;;;;16.00;99.90;;;;;;5064270;28;19912;-70
2022/10/24 14:13:30;;;;;;;;;;;16.00;99.90;;;;;;5082109;28;19950;-70
2022/10/24 14:15:59;;;;;;;;;;;16.10;99.90;;;;;;5064307;28;19908;-71
2022/10/24 14:18:25;;;;;;;;;;;16.10;99.90;;;;;;5048084;28;19966;-70
2022/10/24 14:20:52;;;;;;;;;;;16.00;99.90;;;;;;5047831;28;19984;-70
2022/10/24 14:23:26;;;;;;;;;;;16.00;99.90;;;;;;5081720;28;19932;-71
2022/10/24 14:26:05;;;;;;;;;;;16.00;99.90;;;;;;5080807;28;19966;-71
2022/10/24 14:28:43;;;;;;;;;;;16.10;99.90;;;;;;5069226;28;19912;-71
2022/10/24 14:31:23;;;;;;;;;;;16.10;99.90;;;;;;5052915;28;19923;-70
2022/10/24 14:33:50;;;;;;;;;;;16.20;99.90;;;;;;5069440;28;19983;-71
2022/10/24 14:36:20;;;;;;;;;;;16.20;99.90;;;;;;5068510;28;20192;-70